createdAt,value
2023-01-19T00:00:03.423Z,21.71
2023-01-19T00:01:07.747Z,21.72
2023-01-19T00:02:11.960Z,21.73
2023-01-19T00:03:16.448Z,21.74
2023-01-19T00:04:20.717Z,21.73
2023-01-19T00:05:27.206Z,21.72
2023-01-19T00:06:31.544Z,21.73
2023-01-19T00:07:36.062Z,21.7
2023-01-19T00:08:40.345Z,21.68
2023-01-19T00:09:44.553Z,21.7
2023-01-19T00:10:48.778Z,21.71
2023-01-19T00:11:53.032Z,21.68
2023-01-19T00:12:57.760Z,21.69
2023-01-19T00:14:03.273Z,21.66
2023-01-19T00:15:07.535Z,21.65
2023-01-19T00:16:11.849Z,21.66
2023-01-19T00:17:16.201Z,21.69
2023-01-19T00:18:20.434Z,21.67
2023-01-19T00:19:24.639Z,21.68
2023-01-19T00:20:29.086Z,21.65
2023-01-19T00:21:33.333Z,21.62
2023-01-19T00:22:37.569Z,21.64
2023-01-19T00:23:41.797Z,21.62
2023-01-19T00:24:46.048Z,21.62
2023-01-19T00:25:50.265Z,21.59
2023-01-19T00:26:54.511Z,21.63
2023-01-19T00:28:00.582Z,21.62
2023-01-19T00:29:05.645Z,21.64
2023-01-19T00:30:09.875Z,21.67
2023-01-19T00:31:14.153Z,21.65
2023-01-19T00:32:18.615Z,21.64
2023-01-19T00:33:22.870Z,21.64
2023-01-19T00:34:27.106Z,21.64
2023-01-19T00:35:33.858Z,21.64
2023-01-19T00:36:38.178Z,21.61
2023-01-19T00:37:42.477Z,21.64
2023-01-19T00:38:46.696Z,21.62
2023-01-19T00:39:50.953Z,21.62
2023-01-19T00:40:55.173Z,21.55
2023-01-19T00:41:59.522Z,21.59
2023-01-19T00:43:03.783Z,21.61
2023-01-19T00:44:08.090Z,21.61
2023-01-19T00:45:12.308Z,21.62
2023-01-19T00:46:16.618Z,21.6
2023-01-19T00:47:20.845Z,21.56
2023-01-19T00:48:25.079Z,21.56
2023-01-19T00:49:29.335Z,21.57
2023-01-19T00:50:33.559Z,21.56
2023-01-19T00:51:37.848Z,21.56
2023-01-19T00:52:42.071Z,21.54
2023-01-19T00:53:46.337Z,21.57
2023-01-19T00:54:50.566Z,21.61
2023-01-19T00:55:54.801Z,21.59
2023-01-19T00:56:59.072Z,21.57
2023-01-19T00:58:03.309Z,21.55
2023-01-19T00:59:07.575Z,21.56
2023-01-19T01:00:11.847Z,21.54
2023-01-19T01:01:16.200Z,21.5
2023-01-19T01:02:20.856Z,21.49
2023-01-19T01:03:25.770Z,21.54
2023-01-19T01:04:30.539Z,21.57
2023-01-19T01:05:34.779Z,21.54
2023-01-19T01:06:39.001Z,21.52
2023-01-19T01:07:43.243Z,21.51
2023-01-19T01:08:47.693Z,21.53
2023-01-19T01:09:51.928Z,21.53
2023-01-19T01:10:56.233Z,21.53
2023-01-19T01:12:00.473Z,21.51
2023-01-19T01:13:22.413Z,21.5
2023-01-19T01:14:31.112Z,21.52
2023-01-19T01:15:35.438Z,21.51
2023-01-19T01:16:39.839Z,21.52
2023-01-19T01:17:44.289Z,21.52
2023-01-19T01:18:48.497Z,21.49
2023-01-19T01:19:52.731Z,21.48
2023-01-19T01:20:57.036Z,21.5
2023-01-19T01:22:01.293Z,21.45
2023-01-19T01:23:05.474Z,21.46
2023-01-19T01:24:09.709Z,21.47
2023-01-19T01:25:13.967Z,21.46
2023-01-19T01:26:18.172Z,21.44
2023-01-19T01:27:22.403Z,21.46
2023-01-19T01:28:26.635Z,21.51
2023-01-19T01:29:30.882Z,21.52
2023-01-19T01:30:35.143Z,21.48
2023-01-19T01:31:39.410Z,21.47
2023-01-19T01:32:43.812Z,21.48
2023-01-19T01:33:48.057Z,21.48
2023-01-19T01:34:52.415Z,21.48
2023-01-19T01:35:56.682Z,21.47
2023-01-19T01:37:00.902Z,21.45
2023-01-19T01:38:05.182Z,21.42
2023-01-19T01:39:09.441Z,21.43
2023-01-19T01:40:13.678Z,21.4
2023-01-19T01:41:17.946Z,21.38
2023-01-19T01:42:28.941Z,21.35
2023-01-19T01:43:33.182Z,21.35
2023-01-19T01:44:37.501Z,21.36
2023-01-19T01:45:41.750Z,21.4
2023-01-19T01:46:46.088Z,21.44
2023-01-19T01:47:50.325Z,21.45
2023-01-19T01:48:54.592Z,21.44
2023-01-19T01:49:58.838Z,21.42
2023-01-19T01:51:03.063Z,21.43
2023-01-19T01:52:07.282Z,21.43
2023-01-19T01:53:11.759Z,21.43
2023-01-19T01:54:16.283Z,21.41
2023-01-19T01:55:20.561Z,21.4
2023-01-19T01:56:24.810Z,21.42
2023-01-19T01:57:29.000Z,21.39
2023-01-19T01:58:33.233Z,21.36
2023-01-19T01:59:37.477Z,21.37
2023-01-19T02:00:41.849Z,21.4
2023-01-19T02:01:50.782Z,21.41
2023-01-19T02:02:55.474Z,21.41
2023-01-19T02:03:59.946Z,21.41
2023-01-19T02:05:04.271Z,21.4
2023-01-19T02:06:08.567Z,21.38
2023-01-19T02:07:12.955Z,21.37
2023-01-19T02:08:17.210Z,21.37
2023-01-19T02:09:21.441Z,21.39
2023-01-19T02:10:25.664Z,21.4
2023-01-19T02:11:29.896Z,21.38
2023-01-19T02:12:34.133Z,21.41
2023-01-19T02:13:38.355Z,21.39
2023-01-19T02:14:42.585Z,21.38
2023-01-19T02:15:46.831Z,21.37
2023-01-19T02:16:51.116Z,21.36
2023-01-19T02:17:57.699Z,21.36
2023-01-19T02:19:01.959Z,21.37
2023-01-19T02:20:06.187Z,21.36
2023-01-19T02:21:10.411Z,21.37
2023-01-19T02:22:17.806Z,21.38
2023-01-19T02:23:22.041Z,21.34
2023-01-19T02:24:26.311Z,21.33
2023-01-19T02:25:30.573Z,21.31
2023-01-19T02:26:34.831Z,21.36
2023-01-19T02:27:39.080Z,21.33
2023-01-19T02:28:43.305Z,21.36
2023-01-19T02:29:47.618Z,21.37
2023-01-19T02:30:51.981Z,21.39
2023-01-19T02:31:56.397Z,21.37
2023-01-19T02:33:00.950Z,21.37
2023-01-19T02:34:06.229Z,21.39
2023-01-19T02:35:10.459Z,21.41
2023-01-19T02:36:14.715Z,21.41
2023-01-19T02:37:19.117Z,21.41
2023-01-19T02:38:23.321Z,21.4
2023-01-19T02:39:27.552Z,21.38
2023-01-19T02:40:31.843Z,21.39
2023-01-19T02:41:36.065Z,21.38
2023-01-19T02:42:40.434Z,21.35
2023-01-19T02:43:44.720Z,21.36
2023-01-19T02:44:48.959Z,21.37
2023-01-19T02:45:53.184Z,21.37
2023-01-19T02:46:57.494Z,21.38
2023-01-19T02:48:01.749Z,21.38
2023-01-19T02:49:05.985Z,21.37
2023-01-19T02:50:10.350Z,21.33
2023-01-19T02:51:14.558Z,21.32
2023-01-19T02:52:18.860Z,21.35
2023-01-19T02:53:23.103Z,21.35
2023-01-19T02:54:27.345Z,21.32
2023-01-19T02:55:31.569Z,21.34
2023-01-19T02:56:36.052Z,21.35
2023-01-19T02:57:40.267Z,21.35
2023-01-19T02:58:44.472Z,21.33
2023-01-19T02:59:48.705Z,21.35
2023-01-19T03:00:52.997Z,21.35
2023-01-19T03:01:57.353Z,21.36
2023-01-19T03:03:02.312Z,21.33
2023-01-19T03:04:07.716Z,21.33
2023-01-19T03:05:12.182Z,21.34
2023-01-19T03:06:16.433Z,21.33
2023-01-19T03:07:20.672Z,21.34
2023-01-19T03:08:24.912Z,21.35
2023-01-19T03:09:29.167Z,21.35
2023-01-19T03:10:33.433Z,21.34
2023-01-19T03:11:37.641Z,21.35
2023-01-19T03:12:41.849Z,21.3
2023-01-19T03:13:46.213Z,21.3
2023-01-19T03:14:50.464Z,21.28
2023-01-19T03:15:54.809Z,21.29
2023-01-19T03:16:59.219Z,21.28
2023-01-19T03:18:03.536Z,21.28
2023-01-19T03:19:07.818Z,21.29
2023-01-19T03:20:12.130Z,21.28
2023-01-19T03:21:16.373Z,21.26
2023-01-19T03:22:20.710Z,21.28
2023-01-19T03:23:24.956Z,21.27
2023-01-19T03:24:31.889Z,21.3
2023-01-19T03:25:37.119Z,21.28
2023-01-19T03:26:41.379Z,21.25
2023-01-19T03:27:45.781Z,21.28
2023-01-19T03:28:50.169Z,21.27
2023-01-19T03:29:54.387Z,21.25
2023-01-19T03:30:58.682Z,21.24
2023-01-19T03:32:03.055Z,21.23
2023-01-19T03:33:07.263Z,21.25
2023-01-19T03:34:11.601Z,21.22
2023-01-19T03:35:16.054Z,21.22
2023-01-19T03:36:20.258Z,21.22
2023-01-19T03:37:24.534Z,21.22
2023-01-19T03:38:28.760Z,21.22
2023-01-19T03:39:32.995Z,21.2
2023-01-19T03:40:37.196Z,21.2
2023-01-19T03:41:41.418Z,21.2
2023-01-19T03:42:45.627Z,21.21
2023-01-19T03:43:49.866Z,21.19
2023-01-19T03:44:54.079Z,21.2
2023-01-19T03:45:58.345Z,21.18
2023-01-19T03:47:02.711Z,21.18
2023-01-19T03:48:06.922Z,21.2
2023-01-19T03:49:11.143Z,21.18
2023-01-19T03:50:15.363Z,21.18
2023-01-19T03:51:19.580Z,21.15
2023-01-19T03:52:23.848Z,21.17
2023-01-19T03:53:28.074Z,21.16
2023-01-19T03:54:32.323Z,21.18
2023-01-19T03:55:36.720Z,21.17
2023-01-19T03:56:41.014Z,21.14
2023-01-19T03:57:45.271Z,21.15
2023-01-19T03:58:49.515Z,21.17
2023-01-19T03:59:54.750Z,21.18
2023-01-19T04:01:01.340Z,21.16
2023-01-19T04:02:08.250Z,21.12
2023-01-19T04:03:12.734Z,21.11
2023-01-19T04:04:17.005Z,21.12
2023-01-19T04:05:21.278Z,21.11
2023-01-19T04:06:25.533Z,21.11
2023-01-19T04:07:29.778Z,21.1
2023-01-19T04:08:34.002Z,21.14
2023-01-19T04:09:38.305Z,21.1
2023-01-19T04:10:42.515Z,21.09
2023-01-19T04:11:46.737Z,21.11
2023-01-19T04:12:51.008Z,21.11
2023-01-19T04:13:55.274Z,21.1
2023-01-19T04:14:59.554Z,21.1
2023-01-19T04:16:03.803Z,21.14
2023-01-19T04:17:08.205Z,21.12
2023-01-19T04:18:12.467Z,21.11
2023-01-19T04:19:16.731Z,21.16
2023-01-19T04:20:20.941Z,21.14
2023-01-19T04:21:25.189Z,21.12
2023-01-19T04:22:29.398Z,21.12
2023-01-19T04:23:33.651Z,21.11
2023-01-19T04:24:38.900Z,21.1
2023-01-19T04:25:43.313Z,21.1
2023-01-19T04:26:47.533Z,21.11
2023-01-19T04:27:51.745Z,21.1
2023-01-19T04:28:55.961Z,21.11
2023-01-19T04:30:00.172Z,21.11
2023-01-19T04:31:04.442Z,21.11
2023-01-19T04:32:08.906Z,21.11
2023-01-19T04:33:13.125Z,21.11
2023-01-19T04:34:17.399Z,21.1
2023-01-19T04:35:21.640Z,21.1
2023-01-19T04:36:25.903Z,21.09
2023-01-19T04:37:30.116Z,21.1
2023-01-19T04:38:34.375Z,21.08
2023-01-19T04:39:38.869Z,21.08
2023-01-19T04:40:43.109Z,21.09
2023-01-19T04:41:47.377Z,21.1
2023-01-19T04:42:51.627Z,21.09
2023-01-19T04:43:55.885Z,21.11
2023-01-19T04:45:00.145Z,21.1
2023-01-19T04:46:04.418Z,21.09
2023-01-19T04:47:08.857Z,21.1
2023-01-19T04:48:13.106Z,21.09
2023-01-19T04:49:17.428Z,21.09
2023-01-19T04:50:21.664Z,21.12
2023-01-19T04:51:25.870Z,21.11
2023-01-19T04:52:30.097Z,21.1
2023-01-19T04:53:34.379Z,21.09
2023-01-19T04:54:38.747Z,21.09
2023-01-19T04:55:43.047Z,21.07
2023-01-19T04:56:47.248Z,21.07
2023-01-19T04:57:51.468Z,21.07
2023-01-19T04:58:55.724Z,21.05
2023-01-19T04:59:59.929Z,21.07
2023-01-19T05:01:04.244Z,21.15
2023-01-19T05:02:08.651Z,21.2
2023-01-19T05:03:13.077Z,21.2
2023-01-19T05:04:17.650Z,21.2
2023-01-19T05:05:23.138Z,21.21
2023-01-19T05:06:27.394Z,21.23
2023-01-19T05:07:31.627Z,21.25
2023-01-19T05:08:35.839Z,21.31
2023-01-19T05:09:40.064Z,21.34
2023-01-19T05:10:44.316Z,21.37
2023-01-19T05:11:48.608Z,21.42
2023-01-19T05:12:52.892Z,21.49
2023-01-19T05:13:57.149Z,21.52
2023-01-19T05:15:01.371Z,21.56
2023-01-19T05:16:05.636Z,21.59
2023-01-19T05:17:09.989Z,21.62
2023-01-19T05:18:14.209Z,21.64
2023-01-19T05:19:18.520Z,21.65
2023-01-19T05:20:22.741Z,21.66
2023-01-19T05:21:26.956Z,21.66
2023-01-19T05:22:31.168Z,21.66
2023-01-19T05:23:35.375Z,21.66
2023-01-19T05:24:39.631Z,21.66
2023-01-19T05:25:44.043Z,21.67
2023-01-19T05:26:48.296Z,21.65
2023-01-19T05:27:52.528Z,21.65
2023-01-19T05:28:56.764Z,21.64
2023-01-19T05:30:01.149Z,21.64
2023-01-19T05:31:05.553Z,21.64
2023-01-19T05:32:10.149Z,21.65
2023-01-19T05:33:14.346Z,21.66
2023-01-19T05:34:18.571Z,21.7
2023-01-19T05:35:35.013Z,21.75
2023-01-19T05:36:39.997Z,21.82
2023-01-19T05:37:44.255Z,21.89
2023-01-19T05:38:48.534Z,21.98
2023-01-19T05:39:52.751Z,22.03
2023-01-19T05:40:57.037Z,22.1
2023-01-19T05:42:01.289Z,22.16
2023-01-19T05:43:05.691Z,22.24
2023-01-19T05:44:09.955Z,22.3
2023-01-19T05:45:14.253Z,22.33
2023-01-19T05:46:18.502Z,22.34
2023-01-19T05:47:22.845Z,22.39
2023-01-19T05:48:27.240Z,22.41
2023-01-19T05:49:31.542Z,22.44
2023-01-19T05:50:35.781Z,22.47
2023-01-19T05:51:40.024Z,22.46
2023-01-19T05:52:44.262Z,22.48
2023-01-19T05:53:48.492Z,22.49
2023-01-19T05:54:52.751Z,22.52
2023-01-19T05:55:59.218Z,22.54
2023-01-19T05:57:03.480Z,22.55
2023-01-19T05:58:07.739Z,22.57
2023-01-19T05:59:11.951Z,22.56
2023-01-19T06:00:16.175Z,22.6
2023-01-19T06:01:20.474Z,22.59
2023-01-19T06:02:24.920Z,22.62
2023-01-19T06:03:29.407Z,22.64
2023-01-19T06:04:33.769Z,22.63
2023-01-19T06:05:38.014Z,22.64
2023-01-19T06:06:42.260Z,22.63
2023-01-19T06:07:46.503Z,22.63
2023-01-19T06:08:50.756Z,22.63
2023-01-19T06:09:55.019Z,22.61
2023-01-19T06:10:59.238Z,22.57
2023-01-19T06:12:05.968Z,22.55
2023-01-19T06:13:10.196Z,22.51
2023-01-19T06:14:14.472Z,22.48
2023-01-19T06:15:18.729Z,22.45
2023-01-19T06:16:22.994Z,22.44
2023-01-19T06:17:27.355Z,22.41
2023-01-19T06:18:31.935Z,22.39
2023-01-19T06:19:36.172Z,22.36
2023-01-19T06:20:40.408Z,22.34
2023-01-19T06:21:44.696Z,22.31
2023-01-19T06:22:48.939Z,22.27
2023-01-19T06:23:53.150Z,22.25
2023-01-19T06:24:57.441Z,22.22
2023-01-19T06:26:01.669Z,22.21
2023-01-19T06:27:05.939Z,22.18
2023-01-19T06:28:10.200Z,22.15
2023-01-19T06:29:14.446Z,22.12
2023-01-19T06:30:18.644Z,22.11
2023-01-19T06:31:22.965Z,22.08
2023-01-19T06:32:27.391Z,22.06
2023-01-19T06:33:31.606Z,22.03
2023-01-19T06:34:35.830Z,22.01
2023-01-19T06:35:40.128Z,21.99
2023-01-19T06:36:44.545Z,21.96
2023-01-19T06:37:48.979Z,21.94
2023-01-19T06:38:53.243Z,21.92
2023-01-19T06:39:57.457Z,21.9
2023-01-19T06:41:01.683Z,21.88
2023-01-19T06:42:05.966Z,21.87
2023-01-19T06:43:10.175Z,21.85
2023-01-19T06:44:14.500Z,21.82
2023-01-19T06:45:18.768Z,21.8
2023-01-19T06:46:23.037Z,21.78
2023-01-19T06:47:27.252Z,21.76
2023-01-19T06:48:31.510Z,21.75
2023-01-19T06:49:35.813Z,21.74
2023-01-19T06:50:40.062Z,21.73
2023-01-19T06:51:44.303Z,21.73
2023-01-19T06:52:48.537Z,21.71
2023-01-19T06:53:52.871Z,21.71
2023-01-19T06:54:57.138Z,21.7
2023-01-19T06:56:01.388Z,21.72
2023-01-19T06:57:07.579Z,21.76
2023-01-19T06:58:11.859Z,21.8
2023-01-19T06:59:16.125Z,21.87
2023-01-19T07:00:20.344Z,21.94
2023-01-19T07:01:24.682Z,22.03
2023-01-19T07:02:29.548Z,22.11
2023-01-19T07:03:34.624Z,22.2
2023-01-19T07:04:38.885Z,22.27
2023-01-19T07:05:43.134Z,22.34
2023-01-19T07:06:47.399Z,22.38
2023-01-19T07:07:51.632Z,22.42
2023-01-19T07:08:56.017Z,22.45
2023-01-19T07:10:00.310Z,22.49
2023-01-19T07:11:21.943Z,22.5
2023-01-19T07:12:36.378Z,22.5
2023-01-19T07:13:41.035Z,22.49
2023-01-19T07:14:45.311Z,22.49
2023-01-19T07:15:49.624Z,22.46
2023-01-19T07:16:53.911Z,22.45
2023-01-19T07:17:58.314Z,22.45
2023-01-19T07:19:02.537Z,22.43
2023-01-19T07:20:06.750Z,22.41
2023-01-19T07:21:11.050Z,22.38
2023-01-19T07:22:15.322Z,22.36
2023-01-19T07:23:19.563Z,22.33
2023-01-19T07:24:23.811Z,22.3
2023-01-19T07:25:28.015Z,22.27
2023-01-19T07:26:32.265Z,22.25
2023-01-19T07:27:36.690Z,22.24
2023-01-19T07:28:40.934Z,22.22
2023-01-19T07:29:45.161Z,22.18
2023-01-19T07:30:49.451Z,22.17
2023-01-19T07:31:54.044Z,22.15
2023-01-19T07:32:58.820Z,22.15
2023-01-19T07:34:04.354Z,22.12
2023-01-19T07:35:08.583Z,22.11
2023-01-19T07:36:12.889Z,22.08
2023-01-19T07:37:17.139Z,22.06
2023-01-19T07:38:21.390Z,22.03
2023-01-19T07:39:25.619Z,22.02
2023-01-19T07:40:29.892Z,22
2023-01-19T07:41:34.122Z,21.98
2023-01-19T07:42:38.363Z,21.98
2023-01-19T07:43:42.618Z,21.96
2023-01-19T07:44:46.849Z,21.94
2023-01-19T07:45:51.321Z,21.91
2023-01-19T07:46:55.592Z,21.9
2023-01-19T07:47:59.858Z,21.88
2023-01-19T07:49:04.172Z,21.87
2023-01-19T07:50:08.415Z,21.84
2023-01-19T07:51:14.884Z,21.82
2023-01-19T07:52:19.133Z,21.81
2023-01-19T07:53:23.394Z,21.8
2023-01-19T07:54:27.635Z,21.79
2023-01-19T07:55:31.856Z,21.76
2023-01-19T07:56:36.105Z,21.76
2023-01-19T07:57:40.309Z,21.74
2023-01-19T07:58:44.632Z,21.72
2023-01-19T07:59:48.888Z,21.73
2023-01-19T08:00:53.218Z,21.71
2023-01-19T08:01:58.312Z,21.71
2023-01-19T08:03:03.736Z,21.71
2023-01-19T08:04:08.571Z,21.71
2023-01-19T08:05:13.130Z,21.74
2023-01-19T08:06:17.359Z,21.79
2023-01-19T08:07:21.781Z,21.85
2023-01-19T08:08:26.074Z,21.92
2023-01-19T08:09:30.349Z,22
2023-01-19T08:10:36.828Z,22.09
2023-01-19T08:11:41.064Z,22.17
2023-01-19T08:12:46.605Z,22.24
2023-01-19T08:13:50.816Z,22.28
2023-01-19T08:14:55.121Z,22.32
2023-01-19T08:15:59.386Z,22.35
2023-01-19T08:17:03.693Z,22.35
2023-01-19T08:18:07.970Z,22.35
2023-01-19T08:19:12.233Z,22.37
2023-01-19T08:20:16.419Z,22.35
2023-01-19T08:21:20.642Z,22.34
2023-01-19T08:22:24.910Z,22.33
2023-01-19T08:23:29.140Z,22.31
2023-01-19T08:24:33.393Z,22.3
2023-01-19T08:25:37.615Z,22.26
2023-01-19T08:26:41.865Z,22.25
2023-01-19T08:27:46.128Z,22.24
2023-01-19T08:28:50.563Z,22.21
2023-01-19T08:29:54.879Z,22.21
2023-01-19T08:31:05.291Z,22.18
2023-01-19T08:32:27.167Z,22.17
2023-01-19T08:33:31.587Z,22.15
2023-01-19T08:34:35.835Z,22.12
2023-01-19T08:35:40.102Z,22.1
2023-01-19T08:36:47.403Z,22.08
2023-01-19T08:37:51.609Z,22.07
2023-01-19T08:38:55.854Z,22.05
2023-01-19T08:40:00.068Z,22.03
2023-01-19T08:41:04.352Z,22.02
2023-01-19T08:42:08.878Z,22.01
2023-01-19T08:43:13.092Z,21.99
2023-01-19T08:44:17.329Z,21.97
2023-01-19T08:45:21.577Z,21.95
2023-01-19T08:46:25.855Z,21.94
2023-01-19T08:47:30.356Z,21.92
2023-01-19T08:48:34.714Z,21.91
2023-01-19T08:49:41.971Z,21.89
2023-01-19T08:50:46.211Z,21.87
2023-01-19T08:51:50.463Z,21.85
2023-01-19T08:52:54.732Z,21.84
2023-01-19T08:53:59.016Z,21.82
2023-01-19T08:55:03.385Z,21.81
2023-01-19T08:56:07.607Z,21.79
2023-01-19T08:57:11.847Z,21.77
2023-01-19T08:58:16.104Z,21.77
2023-01-19T08:59:20.372Z,21.79
2023-01-19T09:00:24.607Z,21.84
2023-01-19T09:01:28.981Z,21.88
2023-01-19T09:02:33.707Z,21.93
2023-01-19T09:03:38.270Z,22.02
2023-01-19T09:04:42.564Z,22.11
2023-01-19T09:05:46.798Z,22.18
2023-01-19T09:06:51.034Z,22.26
2023-01-19T09:07:55.254Z,22.34
2023-01-19T09:08:59.484Z,22.4
2023-01-19T09:10:04.182Z,22.46
2023-01-19T09:11:08.418Z,22.49
2023-01-19T09:12:12.673Z,22.54
2023-01-19T09:13:16.926Z,22.54
2023-01-19T09:14:21.152Z,22.56
2023-01-19T09:15:25.617Z,22.56
2023-01-19T09:16:29.837Z,22.57
2023-01-19T09:17:34.075Z,22.54
2023-01-19T09:18:38.308Z,22.54
2023-01-19T09:19:42.567Z,22.52
2023-01-19T09:20:46.798Z,22.52
2023-01-19T09:21:51.029Z,22.47
2023-01-19T09:22:57.547Z,22.46
2023-01-19T09:24:01.790Z,22.44
2023-01-19T09:25:06.041Z,22.43
2023-01-19T09:26:10.351Z,22.4
2023-01-19T09:27:14.591Z,22.39
2023-01-19T09:28:19.025Z,22.36
2023-01-19T09:29:23.325Z,22.33
2023-01-19T09:30:27.596Z,22.31
2023-01-19T09:31:31.936Z,22.27
2023-01-19T09:32:36.363Z,22.25
2023-01-19T09:33:40.609Z,22.22
2023-01-19T09:34:44.848Z,22.22
2023-01-19T09:35:49.096Z,22.21
2023-01-19T09:36:53.342Z,22.18
2023-01-19T09:37:57.610Z,22.16
2023-01-19T09:39:02.894Z,22.15
2023-01-19T09:40:07.300Z,22.12
2023-01-19T09:41:14.153Z,22.1
2023-01-19T09:42:18.399Z,22.08
2023-01-19T09:43:22.618Z,22.05
2023-01-19T09:44:26.865Z,22.05
2023-01-19T09:45:31.091Z,22.03
2023-01-19T09:46:35.482Z,22.01
2023-01-19T09:47:39.915Z,21.99
2023-01-19T09:48:44.163Z,21.97
2023-01-19T09:49:48.412Z,21.96
2023-01-19T09:50:52.700Z,21.95
2023-01-19T09:51:56.958Z,21.93
2023-01-19T09:53:01.610Z,21.91
2023-01-19T09:54:06.434Z,21.9
2023-01-19T09:55:10.835Z,21.87
2023-01-19T09:56:15.086Z,21.87
2023-01-19T09:57:21.701Z,21.85
2023-01-19T09:58:25.946Z,21.82
2023-01-19T09:59:30.183Z,21.81
2023-01-19T10:00:34.490Z,21.81
2023-01-19T10:01:38.823Z,21.78
2023-01-19T10:02:43.353Z,21.78
2023-01-19T10:03:47.788Z,21.77
2023-01-19T10:04:52.043Z,21.76
2023-01-19T10:05:56.286Z,21.75
2023-01-19T10:07:00.508Z,21.74
2023-01-19T10:08:04.757Z,21.71
2023-01-19T10:09:09.023Z,21.7
2023-01-19T10:10:13.294Z,21.69
2023-01-19T10:11:17.687Z,21.69
2023-01-19T10:12:21.948Z,21.68
2023-01-19T10:13:26.220Z,21.68
2023-01-19T10:14:30.473Z,21.69
2023-01-19T10:15:35.105Z,21.69
2023-01-19T10:16:39.396Z,21.69
2023-01-19T10:17:44.013Z,21.68
2023-01-19T10:18:48.263Z,21.69
2023-01-19T10:19:52.541Z,21.69
2023-01-19T10:20:56.907Z,21.68
2023-01-19T10:22:01.953Z,21.7
2023-01-19T10:23:06.228Z,21.7
2023-01-19T10:24:10.564Z,21.74
2023-01-19T10:25:14.839Z,21.81
2023-01-19T10:26:19.231Z,21.9
2023-01-19T10:27:23.598Z,21.99
2023-01-19T10:28:29.536Z,22.09
2023-01-19T10:29:33.786Z,22.18
2023-01-19T10:30:38.136Z,22.28
2023-01-19T10:31:42.542Z,22.38
2023-01-19T10:32:47.273Z,22.46
2023-01-19T10:33:51.534Z,22.52
2023-01-19T10:34:55.846Z,22.54
2023-01-19T10:36:00.161Z,22.57
2023-01-19T10:37:04.504Z,22.6
2023-01-19T10:38:08.750Z,22.6
2023-01-19T10:39:13.031Z,22.61
2023-01-19T10:40:17.372Z,22.6
2023-01-19T10:41:21.790Z,22.59
2023-01-19T10:42:26.214Z,22.58
2023-01-19T10:43:30.578Z,22.56
2023-01-19T10:44:34.950Z,22.54
2023-01-19T10:45:39.385Z,22.52
2023-01-19T10:46:43.856Z,22.49
2023-01-19T10:47:48.152Z,22.47
2023-01-19T10:48:52.463Z,22.43
2023-01-19T10:49:57.004Z,22.4
2023-01-19T10:51:01.323Z,22.43
2023-01-19T10:52:08.863Z,22.44
2023-01-19T10:53:13.180Z,22.38
2023-01-19T10:54:17.777Z,22.36
2023-01-19T10:55:22.094Z,22.33
2023-01-19T10:56:26.342Z,22.3
2023-01-19T10:57:30.815Z,22.28
2023-01-19T10:58:35.209Z,22.25
2023-01-19T10:59:39.563Z,22.19
2023-01-19T11:00:43.866Z,22.18
2023-01-19T11:01:48.529Z,22.19
2023-01-19T11:02:53.557Z,22.18
2023-01-19T11:03:58.104Z,22.15
2023-01-19T11:05:02.528Z,22.07
2023-01-19T11:06:06.819Z,21.96
2023-01-19T11:07:11.107Z,21.93
2023-01-19T11:08:15.353Z,21.84
2023-01-19T11:09:19.688Z,21.77
2023-01-19T11:10:24.290Z,21.72
2023-01-19T11:11:28.592Z,21.71
2023-01-19T11:12:35.108Z,21.64
2023-01-19T11:13:39.349Z,21.57
2023-01-19T11:14:43.721Z,21.48
2023-01-19T11:15:47.995Z,21.4
2023-01-19T11:16:52.253Z,21.4
2023-01-19T11:17:56.532Z,21.35
2023-01-19T11:19:01.011Z,21.42
2023-01-19T11:20:05.339Z,21.45
2023-01-19T11:21:09.628Z,21.48
2023-01-19T11:22:13.873Z,21.53
2023-01-19T11:23:18.116Z,21.56
2023-01-19T11:24:22.504Z,21.59
2023-01-19T11:25:26.727Z,21.62
2023-01-19T11:26:30.977Z,21.65
2023-01-19T11:27:35.279Z,21.67
2023-01-19T11:28:39.525Z,21.69
2023-01-19T11:29:47.203Z,21.71
2023-01-19T11:30:51.488Z,21.76
2023-01-19T11:31:55.821Z,21.83
2023-01-19T11:33:00.720Z,21.94
2023-01-19T11:34:05.880Z,22.05
2023-01-19T11:35:10.112Z,22.17
2023-01-19T11:36:14.356Z,22.29
2023-01-19T11:37:18.593Z,22.4
2023-01-19T11:38:22.866Z,22.5
2023-01-19T11:39:27.105Z,22.6
2023-01-19T11:40:31.428Z,22.63
2023-01-19T11:41:35.775Z,22.65
2023-01-19T11:42:40.003Z,22.68
2023-01-19T11:43:49.171Z,22.72
2023-01-19T11:44:53.702Z,22.73
2023-01-19T11:45:58.038Z,22.74
2023-01-19T11:47:02.533Z,22.71
2023-01-19T11:48:06.803Z,22.68
2023-01-19T11:49:11.133Z,22.68
2023-01-19T11:50:15.413Z,22.65
2023-01-19T11:51:19.792Z,22.62
2023-01-19T11:52:24.032Z,22.6
2023-01-19T11:53:28.286Z,22.62
2023-01-19T11:54:32.593Z,22.58
2023-01-19T11:55:36.799Z,22.56
2023-01-19T11:56:41.038Z,22.53
2023-01-19T11:57:45.299Z,22.5
2023-01-19T11:58:49.531Z,22.48
2023-01-19T11:59:53.795Z,22.46
2023-01-19T12:00:58.080Z,22.43
2023-01-19T12:02:02.489Z,22.41
2023-01-19T12:03:06.917Z,22.38
2023-01-19T12:04:11.366Z,22.36
2023-01-19T12:05:15.611Z,22.33
2023-01-19T12:06:19.862Z,22.31
2023-01-19T12:07:24.064Z,22.29
2023-01-19T12:08:28.295Z,22.26
2023-01-19T12:09:32.567Z,22.24
2023-01-19T12:10:39.128Z,22.22
2023-01-19T12:11:43.383Z,22.2
2023-01-19T12:12:47.665Z,22.18
2023-01-19T12:13:53.721Z,22.17
2023-01-19T12:14:58.062Z,22.15
2023-01-19T12:16:02.303Z,22.13
2023-01-19T12:17:06.538Z,22.12
2023-01-19T12:18:10.765Z,22.09
2023-01-19T12:19:15.026Z,22.07
2023-01-19T12:20:19.332Z,22.06
2023-01-19T12:21:23.569Z,22.04
2023-01-19T12:22:27.945Z,22.03
2023-01-19T12:23:32.196Z,22.01
2023-01-19T12:24:36.485Z,22
2023-01-19T12:25:41.080Z,21.98
2023-01-19T12:26:45.278Z,21.96
2023-01-19T12:27:49.533Z,21.94
2023-01-19T12:28:53.768Z,21.92
2023-01-19T12:29:58.030Z,21.91
2023-01-19T12:31:04.791Z,21.89
2023-01-19T12:32:09.305Z,21.89
2023-01-19T12:33:13.523Z,21.87
2023-01-19T12:34:17.765Z,21.86
2023-01-19T12:35:21.995Z,21.84
2023-01-19T12:36:26.212Z,21.84
2023-01-19T12:37:30.428Z,21.83
2023-01-19T12:38:34.836Z,21.82
2023-01-19T12:39:39.056Z,21.81
2023-01-19T12:40:43.265Z,21.79
2023-01-19T12:41:47.490Z,21.79
2023-01-19T12:42:51.737Z,21.77
2023-01-19T12:43:56.005Z,21.77
2023-01-19T12:45:00.243Z,21.76
2023-01-19T12:46:04.571Z,21.76
2023-01-19T12:47:08.938Z,21.75
2023-01-19T12:48:13.206Z,21.76
2023-01-19T12:49:17.462Z,21.76
2023-01-19T12:50:21.691Z,21.76
2023-01-19T12:51:25.922Z,21.75
2023-01-19T12:52:30.223Z,21.73
2023-01-19T12:53:34.469Z,21.72
2023-01-19T12:54:38.676Z,21.72
2023-01-19T12:55:42.893Z,21.72
2023-01-19T12:56:47.107Z,21.71
2023-01-19T12:57:51.372Z,21.72
2023-01-19T12:58:55.594Z,21.72
2023-01-19T12:59:59.795Z,21.7
2023-01-19T13:01:04.052Z,21.72
2023-01-19T13:02:08.665Z,21.7
2023-01-19T13:03:13.294Z,21.68
2023-01-19T13:04:17.525Z,21.67
2023-01-19T13:05:21.753Z,21.66
2023-01-19T13:06:25.997Z,21.65
2023-01-19T13:07:30.252Z,21.67
2023-01-19T13:08:34.526Z,21.68
2023-01-19T13:09:38.784Z,21.69
2023-01-19T13:10:43.080Z,21.68
2023-01-19T13:11:53.675Z,21.71
2023-01-19T13:13:04.434Z,21.73
2023-01-19T13:14:08.746Z,21.77
2023-01-19T13:15:12.988Z,21.86
2023-01-19T13:16:17.273Z,21.97
2023-01-19T13:17:21.894Z,22.07
2023-01-19T13:18:26.130Z,22.18
2023-01-19T13:19:30.350Z,22.27
2023-01-19T13:20:34.591Z,22.33
2023-01-19T13:21:38.828Z,22.43
2023-01-19T13:22:46.558Z,22.5
2023-01-19T13:23:50.814Z,22.55
2023-01-19T13:24:55.872Z,22.59
2023-01-19T13:26:01.894Z,22.62
2023-01-19T13:27:06.157Z,22.63
2023-01-19T13:28:10.513Z,22.63
2023-01-19T13:29:14.786Z,22.64
2023-01-19T13:30:19.092Z,22.63
2023-01-19T13:31:23.523Z,22.62
2023-01-19T13:32:27.852Z,22.59
2023-01-19T13:33:32.067Z,22.56
2023-01-19T13:34:36.387Z,22.55
2023-01-19T13:35:40.593Z,22.54
2023-01-19T13:36:44.831Z,22.53
2023-01-19T13:37:49.044Z,22.52
2023-01-19T13:38:53.309Z,22.49
2023-01-19T13:39:57.584Z,22.46
2023-01-19T13:41:02.856Z,22.44
2023-01-19T13:42:07.071Z,22.43
2023-01-19T13:43:11.313Z,22.41
2023-01-19T13:44:15.608Z,22.38
2023-01-19T13:45:19.846Z,22.37
2023-01-19T13:46:24.196Z,22.34
2023-01-19T13:47:28.686Z,22.32
2023-01-19T13:48:32.923Z,22.3
2023-01-19T13:49:37.171Z,22.26
2023-01-19T13:50:41.568Z,22.26
2023-01-19T13:51:45.811Z,22.22
2023-01-19T13:52:52.756Z,22.21
2023-01-19T13:53:56.985Z,22.19